TAF and METAR

Decoding for American and Canadian METARs and TAFs is not fully implemented.

Could not understand the following METAR

CWSA 232300Z AUTO 12009KT 9SM FEW033 13/12 A3001 RMK PRESFR SLP163

TAF for Sable Island

TAF CWSA 231941Z 2320/2324 14012KT P6SM BKN180 RMK FCST BASED ON AUTO OBS. NXT FCST WILL BE ISSUED AT 240745Z
Report created 23. jun 21:41

between 23. jun 22:00 - 23. jun 02:00

wind 12 knots from SE (140°)